Time;durP1;ratioP1;P1;durP2;ratioP2;P2;SDS_P1;SDS_P2;PMS_P1;PMS_P2;Temp;Humidity;BMP_temperature;BMP_pressure;BME280_temperature;BME280_humidity;BME280_pressure;Samples;Min_cycle;Max_cycle;Signal;HPM_P1;HPM_P2
2023/06/04 00:02:20;;;;;;;5.97;5.40;;;;;15.40;97003.00;;;;4994123;28;20205;-88
2023/06/04 00:05:13;;;;;;;5.47;4.97;;;;;15.50;97008.00;;;;4984671;28;20234;-88
2023/06/04 00:08:02;;;;;;;10.07;5.77;;;;;15.50;97003.00;;;;4986471;28;20205;-88
2023/06/04 00:10:51;;;;;;;6.17;4.60;;;;;15.20;97010.00;;;;4994459;28;20276;-87
2023/06/04 00:13:43;;;;;;;6.50;5.57;;;;;14.70;96997.00;;;;4994735;28;20580;-89
2023/06/04 00:16:35;;;;;;;6.33;5.13;;;;;15.00;97008.00;;;;4989357;28;20621;-87
2023/06/04 00:19:25;;;;;;;6.47;5.73;;;;;15.40;97007.00;;;;4989302;28;20202;-87
2023/06/04 00:22:15;;;;;;;6.73;5.30;;;;;15.60;97003.00;;;;4988542;28;20206;-87
2023/06/04 00:25:04;;;;;;;6.03;4.73;;;;;15.60;97006.00;;;;4987641;28;20234;-87
2023/06/04 00:27:53;;;;;;;5.33;4.67;;;;;15.20;97007.00;;;;4986068;28;20219;-88
2023/06/04 00:30:42;;;;;;;9.90;5.70;;;;;15.70;97001.00;;;;4990463;28;20459;-87
2023/06/04 00:33:32;;;;;;;7.83;5.07;;;;;15.90;96999.00;;;;4983796;28;20222;-87
2023/06/04 00:36:22;;;;;;;5.97;5.20;;;;;16.10;96999.00;;;;4983612;28;20230;-87
2023/06/04 00:39:11;;;;;;;5.40;4.80;;;;;16.00;97004.00;;;;4993447;28;20743;-87
2023/06/04 00:42:01;;;;;;;7.13;5.30;;;;;15.90;96992.00;;;;4989074;28;20256;-87
2023/06/04 00:44:50;;;;;;;11.60;6.00;;;;;15.40;96990.00;;;;4989254;28;20413;-87
2023/06/04 00:47:39;;;;;;;9.07;5.43;;;;;14.80;96992.00;;;;4995939;28;20206;-87
2023/06/04 00:50:28;;;;;;;7.47;5.33;;;;;14.80;96980.00;;;;4990592;28;20211;-87
2023/06/04 00:53:18;;;;;;;7.03;6.33;;;;;15.20;96988.00;;;;4989859;28;20207;-87
2023/06/04 00:56:08;;;;;;;7.53;5.13;;;;;15.30;96987.00;;;;4984397;28;20605;-87
2023/06/04 00:58:57;;;;;;;6.30;4.90;;;;;15.50;96982.00;;;;4991362;28;20232;-87
2023/06/04 01:01:50;;;;;;;8.33;5.87;;;;;15.40;96984.00;;;;4986113;28;20221;-87
2023/06/04 01:04:47;;;;;;;5.90;5.27;;;;;15.50;96984.00;;;;4988765;28;20226;-87
2023/06/04 01:07:37;;;;;;;8.93;6.27;;;;;15.30;96979.00;;;;4994165;28;20215;-88
2023/06/04 01:10:27;;;;;;;10.80;5.90;;;;;15.20;96975.00;;;;4987942;28;20662;-88
2023/06/04 01:13:16;;;;;;;8.50;6.10;;;;;15.10;96972.00;;;;4989816;28;20213;-88
2023/06/04 01:16:06;;;;;;;9.13;5.53;;;;;15.30;96970.00;;;;4984633;28;20227;-87
2023/06/04 01:18:57;;;;;;;11.37;6.17;;;;;15.00;96973.00;;;;4988209;28;20206;-88
2023/06/04 01:21:48;;;;;;;6.67;5.20;;;;;15.10;96975.00;;;;4987516;28;20202;-88
2023/06/04 01:24:40;;;;;;;8.37;5.47;;;;;14.90;96971.00;;;;4989019;28;20645;-87
2023/06/04 01:27:31;;;;;;;9.83;5.40;;;;;14.50;96972.00;;;;4988263;28;20303;-88
2023/06/04 01:30:22;;;;;;;6.03;4.93;;;;;14.80;96967.00;;;;4984688;28;20313;-88
2023/06/04 01:33:13;;;;;;;6.07;5.40;;;;;14.40;96975.00;;;;4981596;28;20222;-87
2023/06/04 01:36:02;;;;;;;6.37;5.77;;;;;14.40;96973.00;;;;4981202;28;20227;-88
2023/06/04 01:38:51;;;;;;;7.37;6.40;;;;;14.20;96970.00;;;;4989667;28;20202;-87
2023/06/04 01:41:40;;;;;;;8.80;6.27;;;;;14.70;96970.00;;;;4984910;28;20206;-87
2023/06/04 01:44:31;;;;;;;9.53;5.33;;;;;14.80;96954.00;;;;4989471;28;20265;-88
2023/06/04 01:47:20;;;;;;;6.13;5.40;;;;;15.20;96965.00;;;;4991938;28;20198;-88
2023/06/04 01:50:10;;;;;;;6.20;5.57;;;;;15.30;96965.00;;;;4995232;28;20203;-87
2023/06/04 01:52:59;;;;;;;9.83;5.63;;;;;15.30;96970.00;;;;4990931;28;20222;-87
2023/06/04 01:55:50;;;;;;;10.50;6.10;;;;;15.40;96975.00;;;;4993924;28;20611;-87
2023/06/04 01:58:40;;;;;;;8.57;5.47;;;;;15.30;96963.00;;;;4995255;28;20280;-88
2023/06/04 02:01:30;;;;;;;6.47;5.37;;;;;15.50;96970.00;;;;4994604;28;20209;-89
2023/06/04 02:04:21;;;;;;;7.43;5.13;;;;;15.30;96966.00;;;;4984235;28;20227;-88
2023/06/04 02:07:10;;;;;;;8.17;5.90;;;;;15.40;96971.00;;;;4991644;28;20256;-88
2023/06/04 02:09:59;;;;;;;10.33;5.90;;;;;15.40;96966.00;;;;4991135;28;20210;-88
2023/06/04 02:12:57;;;;;;;8.63;5.70;;;;;15.40;96972.00;;;;4992325;28;20740;-89
2023/06/04 02:15:46;;;;;;;8.17;5.93;;;;;15.70;96966.00;;;;4991013;28;20219;-88
2023/06/04 02:18:37;;;;;;;8.87;6.20;;;;;15.90;96960.00;;;;4994478;28;20199;-88
2023/06/04 02:21:26;;;;;;;6.97;6.13;;;;;15.40;96967.00;;;;4988940;28;20682;-88
2023/06/04 02:24:15;;;;;;;6.30;4.83;;;;;15.40;96966.00;;;;4984038;28;20211;-88
2023/06/04 02:27:05;;;;;;;5.57;4.93;;;;;15.50;96962.00;;;;4991062;28;20261;-88
2023/06/04 02:29:54;;;;;;;6.47;5.40;;;;;15.70;96956.00;;;;4992740;28;20215;-88
2023/06/04 02:32:44;;;;;;;9.10;5.33;;;;;15.90;96952.00;;;;4996524;28;20593;-88
2023/06/04 02:35:35;;;;;;;6.87;5.70;;;;;16.00;96952.00;;;;4990554;28;20705;-88
2023/06/04 02:38:24;;;;;;;6.60;5.23;;;;;15.90;96956.00;;;;4984075;23;20262;-72
2023/06/04 02:41:13;;;;;;;11.27;5.97;;;;;15.50;96953.00;;;;4953953;28;20215;-71
2023/06/04 02:44:02;;;;;;;7.17;5.50;;;;;15.30;96947.00;;;;4953373;28;20725;-72
2023/06/04 02:46:51;;;;;;;5.67;4.97;;;;;15.10;96948.00;;;;4956130;28;20211;-71
2023/06/04 02:49:40;;;;;;;8.67;5.53;;;;;15.50;96955.00;;;;4955224;28;20200;-72
2023/06/04 02:52:32;;;;;;;8.93;5.70;;;;;15.70;96949.00;;;;4951921;28;20200;-72
2023/06/04 02:55:21;;;;;;;9.67;6.17;;;;;15.80;96957.00;;;;4953233;28;20230;-72
2023/06/04 02:58:10;;;;;;;7.07;5.83;;;;;15.90;96959.00;;;;4956851;28;20701;-72
2023/06/04 03:01:00;;;;;;;5.73;5.17;;;;;15.80;96949.00;;;;4951966;28;20216;-72
2023/06/04 03:03:49;;;;;;;5.70;5.00;;;;;15.60;96940.00;;;;4955445;28;20231;-71
2023/06/04 03:06:39;;;;;;;7.33;5.47;;;;;15.20;96948.00;;;;4954269;28;20235;-71
2023/06/04 03:09:30;;;;;;;7.20;5.07;;;;;15.00;96949.00;;;;4955169;28;20227;-72
2023/06/04 03:12:19;;;;;;;7.43;6.37;;;;;14.90;96952.00;;;;4952622;28;20207;-71
2023/06/04 03:15:09;;;;;;;6.37;5.33;;;;;14.80;96954.00;;;;4954426;28;20231;-72
2023/06/04 03:17:59;;;;;;;8.13;5.80;;;;;15.10;96952.00;;;;4954758;28;20211;-72
2023/06/04 03:20:48;;;;;;;7.00;5.70;;;;;15.00;96951.00;;;;4956509;28;20271;-72
2023/06/04 03:23:37;;;;;;;8.50;5.97;;;;;15.20;96945.00;;;;4952917;28;20308;-72
2023/06/04 03:26:28;;;;;;;10.33;6.27;;;;;15.40;96959.00;;;;4954964;28;20224;-71
2023/06/04 03:29:17;;;;;;;7.83;6.23;;;;;15.20;96955.00;;;;4954288;28;20204;-70
2023/06/04 03:32:07;;;;;;;7.37;6.67;;;;;15.30;96966.00;;;;4954566;28;20610;-71
2023/06/04 03:34:56;;;;;;;8.17;5.87;;;;;15.20;96950.00;;;;4957199;28;20232;-72
2023/06/04 03:37:45;;;;;;;7.80;6.83;;;;;15.00;96966.00;;;;4953737;28;20200;-71
2023/06/04 03:40:34;;;;;;;7.63;6.20;;;;;14.80;96962.00;;;;4976377;28;20715;-71
2023/06/04 03:43:25;;;;;;;7.40;6.07;;;;;15.20;96958.00;;;;4973268;28;20209;-71
2023/06/04 03:46:14;;;;;;;8.10;5.83;;;;;15.60;96964.00;;;;4971759;28;20595;-71
2023/06/04 03:49:03;;;;;;;9.27;6.10;;;;;15.80;96963.00;;;;4980204;28;20202;-71
2023/06/04 03:51:52;;;;;;;6.80;6.10;;;;;15.60;96964.00;;;;4979735;28;20203;-71
2023/06/04 03:54:42;;;;;;;6.37;5.77;;;;;15.50;96961.00;;;;4978798;28;20219;-72
2023/06/04 03:57:32;;;;;;;6.93;5.70;;;;;15.20;96956.00;;;;4977782;28;20207;-71
2023/06/04 04:00:23;;;;;;;10.73;6.20;;;;;14.90;96973.00;;;;4973389;28;20218;-71
2023/06/04 04:03:12;;;;;;;10.37;6.13;;;;;15.10;96965.00;;;;4971690;28;20207;-71
2023/06/04 04:06:01;;;;;;;12.23;6.07;;;;;15.40;96971.00;;;;4969521;28;20223;-71
2023/06/04 04:08:50;;;;;;;7.70;5.50;;;;;15.70;96972.00;;;;4966990;28;20199;-71
2023/06/04 04:11:39;;;;;;;6.90;5.57;;;;;15.90;96980.00;;;;4971968;28;20208;-72
2023/06/04 04:14:28;;;;;;;7.00;5.73;;;;;15.80;96969.00;;;;4974789;28;20324;-71
2023/06/04 04:17:19;;;;;;;7.13;5.80;;;;;15.70;96973.00;;;;4971853;28;20200;-71
2023/06/04 04:20:08;;;;;;;5.37;4.87;;;;;15.60;96967.00;;;;4968095;28;20241;-71
2023/06/04 04:22:57;;;;;;;7.57;6.00;;;;;15.50;96990.00;;;;4971039;28;20203;-71
2023/06/04 04:25:47;;;;;;;11.67;6.23;;;;;15.40;96973.00;;;;4973384;28;20227;-71
2023/06/04 04:28:36;;;;;;;7.30;6.33;;;;;15.30;96981.00;;;;4972675;28;20210;-71
2023/06/04 04:31:25;;;;;;;9.13;6.50;;;;;15.30;96983.00;;;;4976950;28;20221;-71
2023/06/04 04:34:16;;;;;;;6.93;6.20;;;;;15.40;96986.00;;;;4974414;28;20226;-71
2023/06/04 04:37:08;;;;;;;9.33;6.83;;;;;16.00;96989.00;;;;4970159;28;20207;-72
2023/06/04 04:39:57;;;;;;;9.43;6.33;;;;;16.30;96987.00;;;;4969527;28;20577;-71
2023/06/04 04:42:46;;;;;;;7.77;5.97;;;;;16.10;96980.00;;;;4974370;28;20211;-71
2023/06/04 04:45:35;;;;;;;7.03;5.80;;;;;16.00;96977.00;;;;4972387;28;20583;-72
2023/06/04 04:48:24;;;;;;;8.20;6.00;;;;;16.00;96977.00;;;;4971184;28;20239;-70
2023/06/04 04:51:15;;;;;;;7.60;6.40;;;;;16.00;96978.00;;;;4971685;28;20206;-72
2023/06/04 04:54:04;;;;;;;9.70;5.30;;;;;16.00;96980.00;;;;4971715;28;20258;-72
2023/06/04 04:56:53;;;;;;;6.70;5.50;;;;;16.00;96984.00;;;;4968113;28;20854;-71
2023/06/04 04:59:47;;;;;;;7.20;6.50;;;;;16.00;96977.00;;;;4968792;28;20202;-71
2023/06/04 05:02:36;;;;;;;6.00;5.37;;;;;16.10;96979.00;;;;4970005;28;20206;-71
2023/06/04 05:05:25;;;;;;;8.37;6.30;;;;;16.40;96983.00;;;;4972091;28;20230;-71
2023/06/04 05:08:16;;;;;;;7.93;6.47;;;;;16.40;96984.00;;;;4971527;28;20203;-71
2023/06/04 05:11:05;;;;;;;8.97;5.73;;;;;16.40;96984.00;;;;4971319;28;20222;-71
2023/06/04 05:13:54;;;;;;;9.73;6.03;;;;;16.50;96980.00;;;;4970469;28;20223;-72
2023/06/04 05:16:44;;;;;;;6.53;5.83;;;;;16.70;96987.00;;;;4972295;28;20210;-71
2023/06/04 05:19:33;;;;;;;7.60;6.17;;;;;16.60;96982.00;;;;4970713;28;20207;-71
2023/06/04 05:22:25;;;;;;;6.47;5.87;;;;;16.80;96998.00;;;;4969436;28;20210;-72
2023/06/04 05:25:17;;;;;;;7.77;6.10;;;;;17.00;96993.00;;;;4968194;28;20305;-71
2023/06/04 05:28:06;;;;;;;9.00;7.33;;;;;17.10;96984.00;;;;4967199;28;20207;-72
2023/06/04 05:30:59;;;;;;;17.20;10.17;;;;;17.20;96997.00;;;;4970076;28;20239;-71
2023/06/04 05:33:49;;;;;;;12.23;8.30;;;;;17.20;97000.00;;;;4968801;28;20223;-72
2023/06/04 05:36:39;;;;;;;9.03;6.13;;;;;17.20;97000.00;;;;4967648;28;20203;-72
2023/06/04 05:39:28;;;;;;;8.80;6.20;;;;;17.60;96999.00;;;;4966800;28;20230;-72
2023/06/04 05:42:18;;;;;;;7.67;6.57;;;;;17.90;96991.00;;;;4974841;28;20584;-72
2023/06/04 05:45:09;;;;;;;7.63;5.77;;;;;18.20;96993.00;;;;4968020;28;20231;-72
2023/06/04 05:47:58;;;;;;;7.77;6.17;;;;;18.20;96993.00;;;;4972229;28;20234;-72
2023/06/04 05:50:49;;;;;;;8.13;4.90;;;;;18.10;96997.00;;;;4970369;28;20216;-72
2023/06/04 05:53:38;;;;;;;7.30;6.60;;;;;18.50;96999.00;;;;4968992;28;20223;-72
2023/06/04 05:56:27;;;;;;;8.83;5.67;;;;;18.80;96999.00;;;;4969061;28;20215;-72
2023/06/04 05:59:17;;;;;;;7.73;5.93;;;;;18.90;97009.00;;;;4968527;28;20206;-72
2023/06/04 06:02:07;;;;;;;9.50;6.17;;;;;18.80;96998.00;;;;4968153;28;20214;-73
2023/06/04 06:04:56;;;;;;;5.80;5.20;;;;;18.60;97011.00;;;;4967632;28;20896;-72
2023/06/04 06:07:46;;;;;;;8.10;5.43;;;;;18.80;97012.00;;;;4967656;28;20249;-73
2023/06/04 06:10:35;;;;;;;6.73;5.87;;;;;19.10;97008.00;;;;4966187;28;20196;-73
2023/06/04 06:13:24;;;;;;;7.23;5.43;;;;;19.20;97003.00;;;;4966952;28;20199;-73
2023/06/04 06:16:16;;;;;;;9.33;5.50;;;;;19.50;97012.00;;;;4968414;28;20203;-73
2023/06/04 06:19:06;;;;;;;6.10;5.50;;;;;19.70;97008.00;;;;4969852;28;20216;-73
2023/06/04 06:21:55;;;;;;;8.07;5.93;;;;;19.60;97021.00;;;;4967813;28;20207;-73
2023/06/04 06:24:45;;;;;;;7.90;6.70;;;;;19.60;97021.00;;;;4968053;28;20303;-72
2023/06/04 06:27:34;;;;;;;7.23;6.43;;;;;19.70;97020.00;;;;4967183;28;20616;-72
2023/06/04 06:30:23;;;;;;;10.13;6.87;;;;;19.60;97026.00;;;;4969859;28;20811;-73
2023/06/04 06:33:14;;;;;;;10.03;6.17;;;;;19.80;97036.00;;;;4968578;28;20722;-73
2023/06/04 06:36:03;;;;;;;8.07;5.80;;;;;20.10;97031.00;;;;4972854;28;20229;-73
2023/06/04 06:38:53;;;;;;;8.70;6.10;;;;;19.80;97032.00;;;;4969780;28;20207;-73
2023/06/04 06:41:42;;;;;;;10.80;5.87;;;;;19.80;97045.00;;;;4970001;28;20207;-73
2023/06/04 06:44:31;;;;;;;8.43;6.10;;;;;19.80;97041.00;;;;4972881;28;20730;-72
2023/06/04 06:47:20;;;;;;;6.70;5.43;;;;;19.70;97041.00;;;;4973616;28;20227;-73
2023/06/04 06:50:11;;;;;;;8.83;6.03;;;;;19.90;97043.00;;;;4972483;28;20203;-73
2023/06/04 06:53:00;;;;;;;7.93;7.13;;;;;19.90;97042.00;;;;4972186;28;20214;-73
2023/06/04 06:55:49;;;;;;;6.80;5.73;;;;;20.10;97040.00;;;;4975268;28;20202;-73
2023/06/04 06:58:38;;;;;;;7.70;6.77;;;;;20.20;97038.00;;;;4976380;28;20692;-73
2023/06/04 07:01:27;;;;;;;6.17;5.57;;;;;20.20;97040.00;;;;4971499;28;20210;-73
2023/06/04 07:04:17;;;;;;;9.43;6.23;;;;;20.20;97044.00;;;;4970967;28;20234;-73
2023/06/04 07:07:08;;;;;;;7.83;6.13;;;;;20.30;97046.00;;;;4968456;28;20232;-73
2023/06/04 07:09:57;;;;;;;11.23;6.43;;;;;20.50;97046.00;;;;4971043;28;20207;-73
2023/06/04 07:12:46;;;;;;;10.13;6.20;;;;;20.60;97039.00;;;;4969839;28;20218;-74
2023/06/04 07:15:35;;;;;;;9.27;6.00;;;;;20.90;97040.00;;;;4972980;28;20226;-74
2023/06/04 07:18:24;;;;;;;7.77;6.00;;;;;21.00;97032.00;;;;4973150;28;20199;-73
2023/06/04 07:21:13;;;;;;;9.93;5.30;;;;;21.20;97036.00;;;;4972173;28;20207;-73
2023/06/04 07:24:04;;;;;;;6.90;5.77;;;;;21.40;97033.00;;;;4968242;28;20243;-74
2023/06/04 07:26:53;;;;;;;7.67;5.67;;;;;21.70;97027.00;;;;4973618;28;20210;-72
2023/06/04 07:29:45;;;;;;;9.17;6.33;;;;;22.00;97036.00;;;;4969175;28;20230;-72
2023/06/04 07:32:34;;;;;;;8.83;6.20;;;;;22.30;97027.00;;;;4972573;28;20214;-72
2023/06/04 07:35:23;;;;;;;9.87;5.67;;;;;22.00;97027.00;;;;4971927;28;20227;-72
2023/06/04 07:38:12;;;;;;;8.03;5.63;;;;;22.10;97029.00;;;;4967206;28;20589;-72
2023/06/04 07:41:02;;;;;;;6.80;5.73;;;;;22.30;97034.00;;;;4970369;28;20207;-73
2023/06/04 07:43:51;;;;;;;10.33;5.30;;;;;22.50;97026.00;;;;4972301;28;20606;-73
2023/06/04 07:46:40;;;;;;;8.60;5.57;;;;;22.40;97035.00;;;;4972244;28;20211;-73
2023/06/04 07:49:29;;;;;;;6.87;5.47;;;;;22.50;97038.00;;;;4974195;28;20208;-72
2023/06/04 07:52:18;;;;;;;6.80;4.67;;;;;22.80;97042.00;;;;4971036;28;20207;-72
2023/06/04 07:55:09;;;;;;;6.67;5.07;;;;;22.40;97031.00;;;;4971719;28;20234;-72
2023/06/04 07:58:00;;;;;;;10.80;5.67;;;;;22.70;97038.00;;;;4972696;28;20770;-73
2023/06/04 08:00:49;;;;;;;9.10;6.07;;;;;22.80;97042.00;;;;4961894;28;20211;-72
2023/06/04 08:03:38;;;;;;;8.27;5.10;;;;;22.90;97046.00;;;;4972655;28;20235;-73
2023/06/04 08:06:27;;;;;;;7.93;5.37;;;;;23.20;97052.00;;;;4971376;28;20203;-73
2023/06/04 08:09:17;;;;;;;8.87;5.63;;;;;23.10;97048.00;;;;4970326;28;20231;-73
2023/06/04 08:12:06;;;;;;;6.33;5.43;;;;;23.20;97042.00;;;;4977174;28;20207;-73
2023/06/04 08:14:58;;;;;;;6.70;5.53;;;;;23.60;97053.00;;;;4965241;28;20224;-74
2023/06/04 08:17:47;;;;;;;9.27;5.70;;;;;23.30;97047.00;;;;4971816;28;20200;-73
2023/06/04 08:20:36;;;;;;;6.93;5.70;;;;;22.50;97042.00;;;;4971861;28;20207;-72
2023/06/04 08:23:25;;;;;;;5.90;5.13;;;;;23.00;97046.00;;;;4971966;28;20204;-74
2023/06/04 08:26:14;;;;;;;7.57;5.30;;;;;21.70;97045.00;;;;4968296;28;20207;-73
2023/06/04 08:29:04;;;;;;;13.37;5.30;;;;;22.20;97045.00;;;;4963571;28;20712;-74
2023/06/04 08:31:55;;;;;;;7.20;5.70;;;;;22.80;97049.00;;;;4966851;28;20196;-72
2023/06/04 08:34:44;;;;;;;7.47;5.20;;;;;23.10;97054.00;;;;4963039;28;20235;-72
2023/06/04 08:37:33;;;;;;;6.13;5.13;;;;;22.70;97051.00;;;;4970131;28;20214;-72
2023/06/04 08:40:23;;;;;;;6.93;5.83;;;;;21.80;97048.00;;;;4971994;28;20217;-72
2023/06/04 08:43:12;;;;;;;7.30;5.23;;;;;22.00;97042.00;;;;4970263;28;20633;-72
2023/06/04 08:46:05;;;;;;;6.67;5.00;;;;;23.20;97058.00;;;;4968750;28;20207;-73
2023/06/04 08:48:56;;;;;;;9.50;5.73;;;;;23.70;97055.00;;;;4974210;28;20730;-73
2023/06/04 08:51:46;;;;;;;6.90;5.33;;;;;23.60;97045.00;;;;4966939;28;20203;-73
2023/06/04 08:54:35;;;;;;;8.37;5.80;;;;;24.10;97052.00;;;;4969973;28;20227;-73
2023/06/04 08:57:24;;;;;;;8.23;5.47;;;;;24.20;97050.00;;;;4971707;28;20211;-73
2023/06/04 09:00:15;;;;;;;7.03;5.37;;;;;24.30;97047.00;;;;4973066;28;20207;-74
2023/06/04 09:03:04;;;;;;;9.37;5.63;;;;;23.80;97038.00;;;;4969308;28;20257;-74
2023/06/04 09:05:56;;;;;;;7.70;5.10;;;;;23.90;97047.00;;;;4969743;28;20217;-74
2023/06/04 09:08:46;;;;;;;8.67;5.90;;;;;24.50;97050.00;;;;5003816;23;20229;-83
2023/06/04 09:11:45;;;;;;;6.57;5.47;;;;;24.80;97044.00;;;;5008324;28;20198;-83
2023/06/04 09:14:35;;;;;;;10.80;5.30;;;;;25.10;97042.00;;;;5008526;28;20707;-83
2023/06/04 09:17:24;;;;;;;11.57;5.90;;;;;25.50;97047.00;;;;5019455;28;20667;-84
2023/06/04 09:20:23;;;;;;;6.10;5.03;;;;;25.40;97042.00;;;;5026929;28;20206;-85
2023/06/04 09:23:17;;;;;;;7.43;5.83;;;;;24.80;97042.00;;;;5017840;28;20224;-82
2023/06/04 09:26:09;;;;;;;6.00;5.40;;;;;24.80;97045.00;;;;5020522;28;20259;-85
2023/06/04 09:28:59;;;;;;;7.43;6.00;;;;;25.20;97048.00;;;;5018315;28;20245;-84
2023/06/04 09:31:57;;;;;;;8.77;5.70;;;;;25.40;97043.00;;;;5023939;28;20213;-83
2023/06/04 09:34:46;;;;;;;6.80;5.93;;;;;25.40;97039.00;;;;5024009;28;20229;-83
2023/06/04 09:37:36;;;;;;;9.70;5.83;;;;;26.20;97045.00;;;;5020916;28;20628;-84
2023/06/04 09:40:35;;;;;;;8.27;5.87;;;;;26.30;97035.00;;;;5024784;28;20193;-84
2023/06/04 09:43:25;;;;;;;5.97;5.23;;;;;25.80;97026.00;;;;5019933;28;20201;-84
2023/06/04 09:46:15;;;;;;;12.50;5.60;;;;;26.30;97029.00;;;;5013884;28;20201;-84
2023/06/04 09:49:06;;;;;;;8.40;6.10;;;;;26.90;97033.00;;;;5019541;28;20234;-83
2023/06/04 09:51:55;;;;;;;8.80;5.70;;;;;27.40;97019.00;;;;5022849;28;20213;-84
2023/06/04 09:54:45;;;;;;;6.67;6.07;;;;;26.10;97020.00;;;;5020555;28;20231;-84
2023/06/04 09:57:38;;;;;;;10.27;6.27;;;;;27.10;97025.00;;;;5022591;28;20205;-85
2023/06/04 10:00:28;;;;;;;6.57;5.53;;;;;27.40;97035.00;;;;5025621;28;20198;-84
2023/06/04 10:03:23;;;;;;;6.13;5.53;;;;;27.50;97033.00;;;;5022836;28;20202;-84
2023/06/04 10:06:12;;;;;;;11.37;5.80;;;;;27.40;97046.00;;;;5031960;28;20220;-83
2023/06/04 10:09:06;;;;;;;9.87;5.73;;;;;25.80;97039.00;;;;5032301;28;20232;-84
2023/06/04 10:11:57;;;;;;;6.63;4.87;;;;;26.50;97036.00;;;;5021972;28;20213;-85
2023/06/04 10:14:53;;;;;;;6.37;5.67;;;;;26.30;97035.00;;;;5030048;28;20221;-85
2023/06/04 10:17:44;;;;;;;7.43;6.70;;;;;26.60;97035.00;;;;5026757;28;20233;-85
2023/06/04 10:20:33;;;;;;;11.17;5.67;;;;;26.30;97029.00;;;;5028687;28;20193;-85
2023/06/04 10:23:23;;;;;;;5.67;5.03;;;;;26.50;97014.00;;;;5028532;28;20208;-84
2023/06/04 10:26:15;;;;;;;6.17;5.57;;;;;26.90;96999.00;;;;5030251;28;20197;-84
2023/06/04 10:29:05;;;;;;;5.33;4.83;;;;;28.30;97000.00;;;;5029527;28;20218;-84
2023/06/04 10:31:57;;;;;;;6.50;5.60;;;;;28.80;97002.00;;;;5026891;28;20659;-85
2023/06/04 10:34:47;;;;;;;6.97;5.37;;;;;29.60;96989.00;;;;5028404;28;20229;-84
2023/06/04 10:37:36;;;;;;;5.03;4.60;;;;;29.70;96991.00;;;;5026658;28;20578;-84
2023/06/04 10:40:33;;;;;;;7.67;5.37;;;;;29.60;96996.00;;;;5023188;28;20515;-84
2023/06/04 10:43:22;;;;;;;6.23;5.57;;;;;29.80;97006.00;;;;5031741;28;20201;-85
2023/06/04 10:46:15;;;;;;;8.80;5.50;;;;;28.80;97027.00;;;;5027740;28;20217;-85
2023/06/04 10:49:05;;;;;;;6.73;5.10;;;;;28.50;97017.00;;;;5028445;28;20228;-85
2023/06/04 10:51:56;;;;;;;5.40;4.93;;;;;28.70;97001.00;;;;5026274;28;20216;-85
2023/06/04 10:54:46;;;;;;;8.23;6.43;;;;;26.10;97011.00;;;;5026388;28;20229;-85
2023/06/04 10:57:35;;;;;;;7.83;5.50;;;;;26.70;97023.00;;;;5021922;28;20299;-84
2023/06/04 11:00:35;;;;;;;8.10;5.90;;;;;27.20;97018.00;;;;5017940;28;20200;-84
2023/06/04 11:03:24;;;;;;;8.13;5.27;;;;;27.50;97018.00;;;;5025259;28;20730;-84
2023/06/04 11:06:21;;;;;;;11.17;5.73;;;;;26.60;97012.00;;;;5022054;28;20234;-83
2023/06/04 11:09:16;;;;;;;5.83;5.07;;;;;27.10;97003.00;;;;5027353;28;20235;-83
2023/06/04 11:12:07;;;;;;;7.37;5.03;;;;;27.30;97008.00;;;;5023790;28;20202;-84
2023/06/04 11:14:57;;;;;;;7.37;5.30;;;;;27.40;97020.00;;;;5025605;28;20605;-84
2023/06/04 11:17:53;;;;;;;6.23;5.60;;;;;26.70;97013.00;;;;5023555;28;20208;-84
2023/06/04 11:20:43;;;;;;;5.40;4.83;;;;;27.00;97013.00;;;;5024360;28;20653;-85
2023/06/04 11:23:35;;;;;;;6.87;5.60;;;;;27.30;97006.00;;;;5021779;28;20592;-83
2023/06/04 11:26:30;;;;;;;6.80;6.00;;;;;27.50;97008.00;;;;5021220;28;20677;-83
2023/06/04 11:29:19;;;;;;;9.53;5.87;;;;;27.40;96978.00;;;;5024301;28;20226;-85
2023/06/04 11:32:08;;;;;;;6.03;5.43;;;;;28.10;96978.00;;;;5024801;28;20210;-85
2023/06/04 11:35:06;;;;;;;5.77;5.17;;;;;27.80;96960.00;;;;5019805;28;20226;-83
2023/06/04 11:37:55;;;;;;;9.33;5.37;;;;;29.40;96984.00;;;;5023207;28;20219;-84
2023/06/04 11:40:47;;;;;;;7.60;5.27;;;;;29.20;96986.00;;;;5023239;28;20350;-86
2023/06/04 11:43:39;;;;;;;11.40;6.27;;;;;29.20;96982.00;;;;5022832;28;20205;-85
2023/06/04 11:46:28;;;;;;;7.90;4.63;;;;;29.00;97001.00;;;;5019132;28;20205;-84
2023/06/04 11:49:17;;;;;;;11.73;5.17;;;;;28.50;96999.00;;;;5029489;28;20220;-84
2023/06/04 11:52:07;;;;;;;6.83;5.43;;;;;28.60;97012.00;;;;5024538;28;20209;-85
2023/06/04 11:54:57;;;;;;;6.00;5.10;;;;;28.70;97001.00;;;;5028589;28;20237;-85
2023/06/04 11:57:47;;;;;;;9.13;6.03;;;;;28.80;97017.00;;;;5027941;28;20215;-85
2023/06/04 12:00:37;;;;;;;5.77;4.90;;;;;28.20;97027.00;;;;5022582;28;20208;-85
2023/06/04 12:03:35;;;;;;;5.93;5.00;;;;;27.90;97031.00;;;;5031460;28;20206;-85
2023/06/04 12:06:24;;;;;;;8.33;5.27;;;;;27.50;97025.00;;;;5020587;28;20204;-85
2023/06/04 12:09:22;;;;;;;6.03;5.43;;;;;27.50;97020.00;;;;5030066;28;20590;-85
2023/06/04 12:12:12;;;;;;;10.17;5.40;;;;;27.60;97030.00;;;;5027451;28;20242;-85
2023/06/04 12:15:05;;;;;;;7.60;5.17;;;;;27.50;97030.00;;;;5034129;28;20236;-85
2023/06/04 12:17:55;;;;;;;6.13;5.10;;;;;27.50;97034.00;;;;5029296;28;20206;-85
2023/06/04 12:20:44;;;;;;;5.57;4.70;;;;;27.10;97033.00;;;;5030129;28;20199;-85
2023/06/04 12:23:33;;;;;;;6.53;5.40;;;;;26.80;97040.00;;;;5031594;28;20217;-86
2023/06/04 12:26:29;;;;;;;8.13;5.00;;;;;26.40;97030.00;;;;5035894;28;20579;-86
2023/06/04 12:29:19;;;;;;;7.03;6.23;;;;;26.40;97029.00;;;;5025748;28;20714;-85
2023/06/04 12:32:11;;;;;;;6.00;5.17;;;;;26.40;97023.00;;;;5024444;28;20197;-85
2023/06/04 12:35:00;;;;;;;6.63;5.23;;;;;26.20;97034.00;;;;5025653;28;20233;-85
2023/06/04 12:37:49;;;;;;;6.37;5.13;;;;;25.90;97033.00;;;;5030233;28;20599;-85
2023/06/04 12:40:39;;;;;;;7.00;5.27;;;;;25.80;97024.00;;;;5025099;28;20670;-86
2023/06/04 12:43:28;;;;;;;5.33;4.83;;;;;25.80;97028.00;;;;5030562;28;20201;-86
2023/06/04 12:46:17;;;;;;;6.60;6.07;;;;;25.40;97027.00;;;;5024850;28;20207;-84
2023/06/04 12:49:07;;;;;;;5.73;4.93;;;;;25.10;97028.00;;;;5021360;28;20678;-84
2023/06/04 12:51:56;;;;;;;6.17;5.20;;;;;24.90;97028.00;;;;5040399;28;20201;-84
2023/06/04 12:54:45;;;;;;;10.23;6.23;;;;;25.00;97018.00;;;;5026791;28;20681;-84
2023/06/04 12:57:35;;;;;;;5.97;5.37;;;;;24.60;97020.00;;;;5024245;28;20378;-84
2023/06/04 13:00:24;;;;;;;6.70;4.50;;;;;24.50;97019.00;;;;5025101;28;20229;-85
2023/06/04 13:03:13;;;;;;;8.63;5.73;;;;;24.00;97018.00;;;;5033450;28;20585;-85
2023/06/04 13:06:04;;;;;;;5.83;5.23;;;;;23.80;97025.00;;;;5026285;28;20221;-82
2023/06/04 13:08:53;;;;;;;7.73;5.70;;;;;23.70;97026.00;;;;5029014;28;20642;-83
2023/06/04 13:11:44;;;;;;;7.47;6.67;;;;;23.60;97026.00;;;;5032426;28;20286;-85
2023/06/04 13:14:33;;;;;;;6.93;6.13;;;;;23.50;97017.00;;;;5027415;28;20216;-82
2023/06/04 13:17:22;;;;;;;8.07;5.93;;;;;23.30;97023.00;;;;5030735;28;20216;-83
2023/06/04 13:20:12;;;;;;;7.63;5.30;;;;;23.20;97029.00;;;;5020805;28;20702;-85
2023/06/04 13:23:03;;;;;;;10.03;5.77;;;;;22.60;97016.00;;;;5029868;28;20662;-81
2023/06/04 13:25:52;;;;;;;10.77;5.93;;;;;22.50;97019.00;;;;5015427;28;20230;-82
2023/06/04 13:28:41;;;;;;;12.50;7.07;;;;;22.80;97019.00;;;;5025610;28;20206;-84
2023/06/04 13:31:30;;;;;;;7.20;6.50;;;;;22.40;97020.00;;;;5026042;28;20231;-82
2023/06/04 13:34:19;;;;;;;9.07;7.03;;;;;22.10;97016.00;;;;5024878;28;20228;-84
2023/06/04 13:37:14;;;;;;;6.80;5.90;;;;;22.30;97007.00;;;;5024577;28;20198;-82
2023/06/04 13:40:05;;;;;;;7.23;6.53;;;;;22.80;97022.00;;;;5017937;28;20193;-83
2023/06/04 13:42:55;;;;;;;6.63;5.80;;;;;23.20;97021.00;;;;5024695;28;20216;-83
2023/06/04 13:45:44;;;;;;;8.30;6.07;;;;;23.20;97024.00;;;;5033736;28;20713;-83
2023/06/04 13:48:34;;;;;;;8.90;6.37;;;;;22.60;97015.00;;;;5030316;28;20540;-83
2023/06/04 13:51:23;;;;;;;8.40;6.90;;;;;22.50;97028.00;;;;5026299;28;20587;-81
2023/06/04 13:54:12;;;;;;;7.93;6.73;;;;;22.30;97026.00;;;;5022199;28;20235;-82
2023/06/04 13:57:06;;;;;;;7.57;6.30;;;;;22.80;97032.00;;;;5028514;28;20271;-81
2023/06/04 13:59:55;;;;;;;8.20;6.73;;;;;22.60;97019.00;;;;5029165;28;20215;-82
2023/06/04 14:02:44;;;;;;;10.67;6.77;;;;;23.30;97022.00;;;;5028361;28;20201;-82
2023/06/04 14:05:33;;;;;;;8.83;6.80;;;;;23.50;97025.00;;;;5025431;28;20281;-83
2023/06/04 14:08:22;;;;;;;6.97;6.30;;;;;23.80;97036.00;;;;5029825;28;20224;-82
2023/06/04 14:11:11;;;;;;;7.73;6.93;;;;;23.70;97051.00;;;;5022100;28;20225;-82